Portada
METAR-TAF:

METAR-TAF

Aeropuertos :

Tiaret, Argelia

latitud: 35-15N, longitud: 001-26E, altitud: 1127 m

Observación

El informe se hizo hace 49 minutos, a las 23:00 UTC
Viento 3 kt del este
Temperatura 26°C
Humedad 14%
Presión 1023 hPa
Visibilidad 10 km o más
sin nubes por debajo de 1500 m y sin presencia de cumulonimbus.

METAR: DAOB 082300Z 08003KT CAVOK 26/M04 Q1023

Hora: 00:49 (23:49 UTC)

Pronóstico

El informe se hizo hace 49 minutos, a las 23:00 UTC
Pronóstico válido del 09 a las 00 UTC al 09 a las 24 UTC
Viento 6 kt del este
Visibilidad 10 km o más
sin nubes por debajo de 1500 m y sin presencia de cumulonimbus.
Evolucionando progresivamente
del 09 a las 12 UTC al 09 a las 15 UTC
Viento 10 kt del norte
Probabilidad 30% :
Temporalmente
del 09 a las 14 UTC al 09 a las 18 UTC
Escasas nubes a una altura de 3000 ft, Cumulonimbus.

TAF: DAOB 082300Z 0900/0924 09006KT CAVOK BECMG 0912/0915 35010KT PROB30 TEMPO 0914/0918 FEW030CB

Observaciones y pronósticos meteorológicos de más de 4000 aeropuertos (mensajes METAR y TAF).

Los puntos amarillos y rojos representan las estaciones disponibles.

Ponga el ratón en el punto deseado para ver el nombre de la estación.

Haga clic para ver las observaciones y los pronósticos meteorológicos.

Para cambiar el mapa : haga clic en los botones verdes con una cruz de color negro para hacer un zoom, en el botón verde con un guión para alejar o en las flechas verdes para mapas adyacentes.


METAR-TAF: